Portada
METAR-TAF:

METAR-TAF

Aeropuertos :

Berlin, Nuevo Hampshire, Estados Unidos

latitud: 44-34-34N, longitud: 071-10-43W, altitud: 353 m

Observación

El informe se hizo hace 12 minutos, a las 07:06 UTC
Viento 11 kt del sureste
Temperatura 17°C
Humedad 82%
Presión 1011 hPa
Visibilidad: 16.1 km
Escasas nubes a una altura de 2000 ft

METAR: KBML 220706Z AUTO 14011KT 10SM FEW020 17/14 A2985 RMK AO2 T01720144

Hora: 03:18 (07:18 UTC)


TAF: falta

Observaciones y pronósticos meteorológicos de más de 4000 aeropuertos (mensajes METAR y TAF).

Los puntos amarillos y rojos representan las estaciones disponibles.

Ponga el ratón en el punto deseado para ver el nombre de la estación.

Haga clic para ver las observaciones y los pronósticos meteorológicos.

Para cambiar el mapa : haga clic en los botones verdes con una cruz de color negro para hacer un zoom, en el botón verde con un guión para alejar o en las flechas verdes para mapas adyacentes.


METAR-TAF: